createdAt,value
2023-05-22T00:01:20.137Z,86.6066
2023-05-22T00:02:22.415Z,86.6901
2023-05-22T00:03:23.580Z,86.8447
2023-05-22T00:04:25.561Z,87.0691
2023-05-22T00:05:27.620Z,87.3075
2023-05-22T00:19:44.210Z,88.7574
2023-05-22T00:20:45.413Z,89.0813
2023-05-22T00:21:47.657Z,89.1454
2023-05-22T00:22:48.903Z,88.9262
2023-05-22T00:23:50.509Z,88.7823
2023-05-22T00:24:51.736Z,89.1664
2023-05-22T00:25:52.660Z,89.3628
2023-05-22T00:26:54.574Z,89.5988
2023-05-22T00:28:07.665Z,89.7777
2023-05-22T00:30:28.721Z,90.1125
2023-05-22T00:31:31.555Z,90.3278
2023-05-22T00:32:32.416Z,90.5895
2023-05-22T00:39:42.846Z,91.7701
2023-05-22T00:40:44.611Z,92.0506
2023-05-22T00:50:31.845Z,93.4287
2023-05-22T00:51:36.505Z,93.6349
2023-05-22T00:58:42.158Z,95.1076
2023-05-22T00:59:44.313Z,95.2145
2023-05-22T01:00:44.909Z,95.2926
2023-05-22T01:01:47.070Z,95.3569
2023-05-22T01:09:25.235Z,95.4706
2023-05-22T01:10:25.970Z,95.4679
2023-05-22T01:11:27.741Z,95.4635
2023-05-22T01:12:29.117Z,95.4370
2023-05-22T01:13:30.333Z,95.4314
2023-05-22T01:19:07.895Z,95.1526
2023-05-22T01:20:08.907Z,95.1402
2023-05-22T01:21:09.290Z,95.1018
2023-05-22T01:22:10.505Z,95.0198
2023-05-22T01:23:10.803Z,94.8450
2023-05-22T01:24:13.035Z,94.8399
2023-05-22T01:25:14.518Z,94.7171
2023-05-22T01:26:16.043Z,94.6593
2023-05-22T01:27:17.199Z,94.5364
2023-05-22T01:28:19.284Z,94.4967
2023-05-22T01:29:20.539Z,94.6967
2023-05-22T01:30:21.949Z,94.6972
2023-05-22T01:31:22.224Z,94.5356
2023-05-22T01:32:23.284Z,94.6249
2023-05-22T01:33:25.220Z,94.8042
2023-05-22T01:34:27.088Z,94.8529
2023-05-22T01:35:29.226Z,94.8216
2023-05-22T01:37:32.328Z,95.0423
2023-05-22T01:38:34.034Z,95.1251
2023-05-22T01:39:35.284Z,95.1182
2023-05-22T01:40:37.013Z,95.0750
2023-05-22T01:41:38.736Z,95.1434
2023-05-22T01:42:40.572Z,95.1736
2023-05-22T01:43:41.351Z,95.1661
2023-05-22T01:45:42.354Z,94.9982
2023-05-22T01:47:42.525Z,94.7478
2023-05-22T01:48:45.139Z,94.6268
2023-05-22T01:49:46.592Z,94.4659
2023-05-22T01:51:49.809Z,93.9921
2023-05-22T01:52:51.690Z,94.3766
2023-05-22T01:54:55.561Z,94.7776
2023-05-22T02:15:14.839Z,94.5165
2023-05-22T02:17:16.794Z,94.5945
2023-05-22T02:21:23.825Z,94.8856
2023-05-22T02:22:24.847Z,95.2438
2023-05-22T02:23:26.286Z,95.4112
2023-05-22T02:24:27.034Z,95.5833
2023-05-22T02:25:29.133Z,95.8065
2023-05-22T02:26:31.350Z,95.9958
2023-05-22T02:27:32.381Z,96.0893
2023-05-22T02:29:35.535Z,96.1254
2023-05-22T02:30:37.448Z,96.0985
2023-05-22T02:32:39.707Z,95.9956
2023-05-22T02:33:41.147Z,95.9754
2023-05-22T02:34:42.928Z,96.0366
2023-05-22T02:37:47.447Z,96.2407
2023-05-22T02:39:49.938Z,96.2988
2023-05-22T02:41:51.989Z,96.3463
2023-05-22T02:43:53.976Z,96.3356
2023-05-22T02:44:55.623Z,96.3149
2023-05-22T02:45:57.691Z,96.3065
2023-05-22T02:47:00.435Z,96.3081
2023-05-22T02:48:00.582Z,96.3195
2023-05-22T02:49:01.888Z,96.3481
2023-05-22T02:50:02.336Z,96.3707
2023-05-22T02:51:02.429Z,96.3832
2023-05-22T02:52:05.830Z,96.3787
2023-05-22T02:53:05.847Z,96.3788
2023-05-22T02:54:07.462Z,96.4004
2023-05-22T02:55:09.151Z,96.4274
2023-05-22T02:56:09.322Z,96.4740
2023-05-22T02:57:10.463Z,96.5206
2023-05-22T02:58:25.802Z,96.5560
2023-05-22T03:00:44.295Z,96.6267
2023-05-22T03:01:46.432Z,96.6542
2023-05-22T03:02:46.261Z,96.6566
2023-05-22T03:04:50.473Z,96.6652
2023-05-22T03:05:51.166Z,96.6721
2023-05-22T03:06:52.473Z,96.7133
2023-05-22T03:07:53.855Z,96.7352
2023-05-22T03:11:55.490Z,96.8205
2023-05-22T03:12:55.568Z,96.8321
2023-05-22T03:13:57.762Z,96.8215
2023-05-22T03:14:59.213Z,96.8105
2023-05-22T03:16:00.710Z,96.7981
2023-05-22T03:18:03.881Z,96.7481
2023-05-22T03:19:05.649Z,96.7149
2023-05-22T03:25:11.072Z,96.4026
2023-05-22T03:26:12.983Z,96.3787
2023-05-22T03:27:14.099Z,96.3766
2023-05-22T03:28:16.284Z,96.4078
2023-05-22T03:29:16.609Z,96.4254
2023-05-22T03:30:16.824Z,96.4584
2023-05-22T03:32:20.596Z,96.5164
2023-05-22T03:33:21.264Z,96.5284
2023-05-22T03:34:21.448Z,96.5303
2023-05-22T03:37:24.066Z,96.5418
2023-05-22T03:38:26.002Z,96.5677
2023-05-22T03:39:27.142Z,96.6125
2023-05-22T03:40:28.531Z,96.6737
2023-05-22T03:41:28.961Z,96.7260
2023-05-22T03:42:30.637Z,96.7887
2023-05-22T03:44:32.395Z,96.8648
2023-05-22T03:45:38.990Z,96.8869
2023-05-22T03:52:41.529Z,96.9577
2023-05-22T03:53:42.955Z,96.9624
2023-05-22T03:54:44.613Z,96.9572
2023-05-22T03:55:46.552Z,96.9619
2023-05-22T03:56:49.129Z,96.9633
2023-05-22T04:05:58.460Z,97.0787
2023-05-22T04:10:02.488Z,97.1013
2023-05-22T04:11:02.831Z,97.0995
2023-05-22T04:12:04.069Z,97.1058
2023-05-22T04:13:04.542Z,97.1047
2023-05-22T04:14:07.854Z,97.1022
2023-05-22T04:15:09.263Z,97.1037
2023-05-22T04:16:10.033Z,97.0999
2023-05-22T04:17:12.286Z,97.1005
2023-05-22T04:18:12.728Z,97.1031
2023-05-22T04:19:13.080Z,97.1054
2023-05-22T04:20:15.656Z,97.0915
2023-05-22T04:21:16.630Z,97.0867
2023-05-22T04:22:18.207Z,97.0835
2023-05-22T04:23:20.538Z,97.0721
2023-05-22T04:24:21.393Z,97.0761
2023-05-22T04:25:24.135Z,97.0719
2023-05-22T04:26:24.002Z,97.0703
2023-05-22T04:41:44.654Z,97.0021
2023-05-22T04:42:46.474Z,96.9854
2023-05-22T04:43:48.450Z,96.9714
2023-05-22T04:44:49.563Z,96.9582
2023-05-22T04:45:51.982Z,96.9372
2023-05-22T04:56:04.229Z,96.7233
2023-05-22T04:57:06.397Z,96.7408
2023-05-22T05:03:14.908Z,96.8141
2023-05-22T05:07:19.280Z,96.8415
2023-05-22T05:08:21.285Z,96.8487
2023-05-22T05:24:40.337Z,95.7239
2023-05-22T05:25:42.226Z,95.7159
2023-05-22T05:26:43.385Z,95.5695
2023-05-22T05:27:44.683Z,95.5925
2023-05-22T05:28:46.415Z,95.2320
2023-05-22T05:29:46.876Z,94.7881
2023-05-22T05:31:50.257Z,94.2503
2023-05-22T05:32:50.179Z,94.6087
2023-05-22T05:42:01.172Z,91.6114
2023-05-22T05:43:02.120Z,92.5460
2023-05-22T05:51:09.566Z,92.6652
2023-05-22T05:52:11.082Z,92.6749
2023-05-22T06:01:22.635Z,89.9561
2023-05-22T06:02:24.326Z,90.1382
2023-05-22T06:03:28.488Z,90.5620
2023-05-22T06:11:35.066Z,90.2516
2023-05-22T06:12:36.493Z,89.7216
2023-05-22T06:13:38.214Z,90.0975
2023-05-22T06:14:39.746Z,89.6577
2023-05-22T06:15:41.683Z,88.6304
2023-05-22T06:16:44.627Z,90.0851
2023-05-22T06:17:44.616Z,90.2752
2023-05-22T06:18:44.725Z,89.0944
2023-05-22T06:19:46.253Z,87.3640
2023-05-22T06:20:47.469Z,88.0563
2023-05-22T06:21:53.000Z,83.2219
2023-05-22T06:22:50.897Z,85.0298
2023-05-22T06:23:52.857Z,86.2759
2023-05-22T06:24:54.096Z,85.3014
2023-05-22T06:26:57.498Z,85.3860
2023-05-22T06:27:59.712Z,85.4795
2023-05-22T06:29:03.226Z,86.0721
2023-05-22T06:36:08.588Z,85.8419
2023-05-22T06:37:10.584Z,85.0975
2023-05-22T06:38:11.810Z,85.1217
2023-05-22T06:39:11.986Z,84.9118
2023-05-22T06:44:46.891Z,86.2873
2023-05-22T06:45:49.146Z,81.9678
2023-05-22T06:52:55.260Z,82.8878
2023-05-22T07:05:09.571Z,82.0796
2023-05-22T07:06:11.976Z,79.4186
2023-05-22T07:07:14.400Z,78.8372
2023-05-22T07:31:45.546Z,78.1096
2023-05-22T07:32:45.655Z,75.0117
2023-05-22T07:33:46.707Z,78.9276
2023-05-22T07:34:48.287Z,76.2480
2023-05-22T07:35:49.668Z,76.4501
2023-05-22T07:36:50.697Z,74.1290
2023-05-22T07:39:54.491Z,73.4506
2023-05-22T07:40:56.576Z,76.2268
2023-05-22T07:42:01.536Z,71.9870
2023-05-22T07:48:03.157Z,73.2113
2023-05-22T07:49:03.869Z,72.7578
2023-05-22T07:50:04.656Z,74.5510
2023-05-22T07:51:06.096Z,72.0536
2023-05-22T07:52:07.886Z,71.2759
2023-05-22T07:53:08.502Z,74.5551
2023-05-22T07:54:09.890Z,75.9030
2023-05-22T07:55:09.893Z,74.3508
2023-05-22T07:56:11.804Z,76.6312
2023-05-22T07:57:13.887Z,75.0236
2023-05-22T07:58:16.783Z,74.6852
2023-05-22T07:59:17.774Z,72.7702
2023-05-22T08:00:19.913Z,68.4058
2023-05-22T08:01:20.496Z,69.0280
2023-05-22T08:04:24.371Z,70.9931
2023-05-22T08:05:25.170Z,67.1501
2023-05-22T08:06:25.570Z,67.5276
2023-05-22T08:07:27.567Z,75.7525
2023-05-22T08:08:32.250Z,77.2159
2023-05-22T08:29:30.828Z,65.7726
2023-05-22T08:30:31.084Z,66.7309
2023-05-22T08:31:32.635Z,64.5202
2023-05-22T08:32:32.894Z,66.1568
2023-05-22T08:33:34.291Z,64.7028
2023-05-22T08:34:35.662Z,63.7693
2023-05-22T08:35:37.387Z,65.4908
2023-05-22T08:36:38.957Z,65.5982
2023-05-22T08:37:40.283Z,64.2195
2023-05-22T08:38:42.041Z,66.5021
2023-05-22T08:39:43.546Z,62.9734
2023-05-22T08:40:47.082Z,62.5555
2023-05-22T08:42:48.575Z,62.8774
2023-05-22T08:43:50.448Z,61.9106
2023-05-22T08:44:51.959Z,64.2622
2023-05-22T08:45:53.526Z,62.4251
2023-05-22T08:46:55.233Z,61.3347
2023-05-22T08:47:57.226Z,61.6367
2023-05-22T08:48:59.258Z,61.6497
2023-05-22T08:50:00.034Z,62.2032
2023-05-22T08:51:00.329Z,64.6049
2023-05-22T08:52:01.777Z,62.6524
2023-05-22T08:53:02.906Z,62.4498
2023-05-22T08:54:03.106Z,61.3714
2023-05-22T08:55:04.574Z,59.7145
2023-05-22T08:56:06.429Z,62.0839
2023-05-22T08:57:08.018Z,62.7912
2023-05-22T08:58:08.669Z,59.5413
2023-05-22T08:59:10.004Z,58.6778
2023-05-22T09:00:10.436Z,58.1308
2023-05-22T09:01:12.334Z,57.5036
2023-05-22T09:02:14.154Z,59.9221
2023-05-22T09:03:15.670Z,58.2127
2023-05-22T09:04:17.558Z,57.3830
2023-05-22T09:05:19.403Z,61.3849
2023-05-22T09:06:21.227Z,61.0731
2023-05-22T09:07:23.020Z,61.2958
2023-05-22T09:08:25.084Z,64.5852
2023-05-22T09:09:26.616Z,62.5974
2023-05-22T09:10:27.077Z,64.2245
2023-05-22T09:11:28.892Z,67.6990
2023-05-22T09:12:30.229Z,59.3722
2023-05-22T09:13:32.077Z,59.1987
2023-05-22T09:14:33.513Z,58.5614
2023-05-22T09:15:35.091Z,56.4010
2023-05-22T09:16:35.824Z,61.6874
2023-05-22T09:20:42.356Z,61.5679
2023-05-22T09:21:42.870Z,61.7114
2023-05-22T09:22:43.733Z,66.9326
2023-05-22T09:23:45.551Z,69.5946
2023-05-22T09:24:47.274Z,67.8929
2023-05-22T09:25:49.244Z,64.3161
2023-05-22T09:26:51.280Z,58.5069
2023-05-22T09:27:52.876Z,60.5808
2023-05-22T09:28:54.278Z,58.0302
2023-05-22T09:30:56.585Z,62.1855
2023-05-22T09:31:56.918Z,59.7423
2023-05-22T09:32:58.937Z,62.9084
2023-05-22T09:33:59.332Z,60.6263
2023-05-22T09:35:01.124Z,67.2628
2023-05-22T09:36:02.129Z,56.8346
2023-05-22T09:37:03.998Z,59.3604
2023-05-22T09:38:05.025Z,56.5587
2023-05-22T09:42:11.409Z,62.2280
2023-05-22T09:43:11.658Z,65.9286
2023-05-22T09:44:12.781Z,63.9622
2023-05-22T09:45:14.139Z,56.8761
2023-05-22T09:46:15.182Z,57.7886
2023-05-22T09:47:17.207Z,59.2095
2023-05-22T09:48:17.392Z,62.3739
2023-05-22T09:49:19.550Z,60.1562
2023-05-22T09:52:23.725Z,63.3980
2023-05-22T09:54:27.302Z,56.2051
2023-05-22T09:55:27.488Z,60.3634
2023-05-22T09:57:29.774Z,59.3908
2023-05-22T09:58:31.492Z,58.6404
2023-05-22T09:59:33.033Z,64.4190
2023-05-22T10:00:34.726Z,68.9469
2023-05-22T10:01:35.264Z,66.0381
2023-05-22T10:02:35.951Z,66.1318
2023-05-22T10:03:37.702Z,60.9551
2023-05-22T10:04:39.775Z,57.1586
2023-05-22T10:05:40.082Z,57.1787
2023-05-22T10:08:44.310Z,52.9472
2023-05-22T10:09:46.345Z,56.2945
2023-05-22T10:10:47.624Z,54.8405
2023-05-22T10:11:49.484Z,57.8550
2023-05-22T10:12:51.361Z,57.3739
2023-05-22T10:13:53.572Z,58.9573
2023-05-22T10:14:54.536Z,59.1178
2023-05-22T10:15:56.426Z,59.6340
2023-05-22T10:16:58.095Z,61.2785
2023-05-22T10:17:59.716Z,63.0433
2023-05-22T10:20:01.173Z,59.3953
2023-05-22T10:21:02.399Z,64.6393
2023-05-22T10:22:02.654Z,61.6107
2023-05-22T10:23:04.314Z,63.3477
2023-05-22T10:24:05.137Z,59.5943
2023-05-22T10:25:10.850Z,61.5480
2023-05-22T10:37:22.778Z,59.1613
2023-05-22T10:38:24.374Z,61.4131
2023-05-22T10:39:24.840Z,59.4372
2023-05-22T10:40:27.450Z,59.8172
2023-05-22T10:41:28.858Z,57.3345
2023-05-22T10:42:30.572Z,58.6429
2023-05-22T10:43:30.639Z,64.3437
2023-05-22T10:44:31.094Z,63.5846
2023-05-22T10:45:32.846Z,67.4133
2023-05-22T10:46:32.830Z,59.1349
2023-05-22T10:47:33.366Z,56.9139
2023-05-22T10:48:34.218Z,59.9696
2023-05-22T10:50:37.113Z,58.3783
2023-05-22T10:51:38.734Z,54.5161
2023-05-22T10:52:40.138Z,54.6380
2023-05-22T10:53:41.883Z,55.9449
2023-05-22T10:56:46.692Z,54.8306
2023-05-22T10:57:48.345Z,58.5824
2023-05-22T10:58:50.163Z,55.3926
2023-05-22T10:59:51.681Z,58.1380
2023-05-22T11:00:53.345Z,55.8466
2023-05-22T11:01:54.300Z,58.3087
2023-05-22T11:12:04.777Z,69.1031
2023-05-22T11:13:05.734Z,60.0211
2023-05-22T11:14:07.655Z,64.2757
2023-05-22T11:15:08.535Z,62.4277
2023-05-22T11:16:09.912Z,59.2114
2023-05-22T11:17:12.860Z,54.3978
2023-05-22T11:21:13.845Z,63.3391
2023-05-22T11:37:32.515Z,56.1232
2023-05-22T11:38:34.176Z,57.9430
2023-05-22T11:39:34.670Z,60.0136
2023-05-22T11:41:36.045Z,58.7012
2023-05-22T11:42:36.385Z,58.7713
2023-05-22T11:43:37.468Z,62.8409
2023-05-22T11:44:39.551Z,61.6338
2023-05-22T11:45:40.592Z,68.3589
2023-05-22T11:46:41.971Z,68.7674
2023-05-22T11:47:43.810Z,57.3301
2023-05-22T11:48:45.837Z,54.6369
2023-05-22T11:49:46.146Z,64.9423
2023-05-22T11:50:48.293Z,65.0230
2023-05-22T11:51:48.888Z,63.1210
2023-05-22T11:52:49.813Z,58.6743
2023-05-22T11:54:51.912Z,52.4221
2023-05-22T11:55:53.032Z,56.4856
2023-05-22T11:56:54.725Z,53.1147
2023-05-22T11:57:56.228Z,57.9815
2023-05-22T11:58:56.428Z,59.5193
2023-05-22T11:59:57.204Z,60.9314
2023-05-22T12:00:57.269Z,59.0282
2023-05-22T12:01:58.289Z,61.2048
2023-05-22T12:03:00.080Z,56.3566
2023-05-22T12:04:00.454Z,54.5830
2023-05-22T12:05:01.554Z,54.2920
2023-05-22T12:06:03.467Z,57.7656
2023-05-22T12:07:04.432Z,54.9623
2023-05-22T12:08:05.041Z,50.5655
2023-05-22T12:11:10.580Z,51.7950
2023-05-22T12:12:11.202Z,52.9321
2023-05-22T12:13:11.241Z,50.6495
2023-05-22T12:15:13.934Z,52.0860
2023-05-22T12:16:14.584Z,59.1895
2023-05-22T12:18:15.068Z,54.1947
2023-05-22T12:19:16.329Z,52.1427
2023-05-22T12:20:18.215Z,54.9413
2023-05-22T12:21:18.794Z,52.0855
2023-05-22T12:22:22.586Z,56.0077
2023-05-22T12:23:20.700Z,49.1471
2023-05-22T12:24:21.542Z,49.9733
2023-05-22T12:25:21.565Z,59.0874
2023-05-22T12:26:23.735Z,60.1369
2023-05-22T12:27:24.898Z,56.4733
2023-05-22T12:28:26.906Z,50.6471
2023-05-22T12:29:28.814Z,49.9586
2023-05-22T12:30:30.719Z,55.5302
2023-05-22T12:31:32.820Z,59.6140
2023-05-22T12:32:33.066Z,48.1823
2023-05-22T12:33:35.088Z,52.3241
2023-05-22T12:34:36.691Z,46.8721
2023-05-22T12:35:38.295Z,47.4255
2023-05-22T12:36:38.538Z,49.6817
2023-05-22T12:37:40.643Z,52.4472
2023-05-22T12:38:41.172Z,55.4665
2023-05-22T12:39:42.142Z,52.5268
2023-05-22T12:40:43.909Z,54.0375
2023-05-22T12:41:44.500Z,56.4189
2023-05-22T12:42:45.570Z,54.2069
2023-05-22T12:47:53.692Z,55.4604
2023-05-22T12:48:55.442Z,56.1879
2023-05-22T12:49:56.815Z,51.5325
2023-05-22T12:50:57.263Z,59.6304
2023-05-22T12:51:57.920Z,51.7986
2023-05-22T12:52:58.053Z,63.2796
2023-05-22T12:53:59.186Z,63.8785
2023-05-22T12:55:00.590Z,57.1607
2023-05-22T12:56:00.908Z,55.0264
2023-05-22T12:57:02.944Z,53.2531
2023-05-22T12:58:02.977Z,53.2864
2023-05-22T13:00:05.312Z,50.2007
2023-05-22T13:01:06.778Z,52.4910
2023-05-22T13:02:08.184Z,47.0893
2023-05-22T13:03:09.897Z,47.2610
2023-05-22T13:04:11.275Z,53.2956
2023-05-22T13:05:11.803Z,53.2054
2023-05-22T13:06:13.380Z,52.5820
2023-05-22T13:07:14.397Z,51.2065
2023-05-22T13:08:14.601Z,43.9261
2023-05-22T13:09:15.081Z,44.6824
2023-05-22T13:10:16.408Z,47.3437
2023-05-22T13:11:17.576Z,54.8310
2023-05-22T13:12:18.031Z,52.4028
2023-05-22T13:13:19.002Z,47.2650
2023-05-22T13:14:20.761Z,52.1294
2023-05-22T13:15:22.356Z,43.2328
2023-05-22T13:16:23.129Z,44.7296
2023-05-22T13:18:25.340Z,52.5042
2023-05-22T13:19:27.574Z,53.7792
2023-05-22T13:20:28.141Z,48.8113
2023-05-22T13:21:29.545Z,49.6575
2023-05-22T13:22:30.149Z,50.7870
2023-05-22T13:23:30.196Z,52.4091
2023-05-22T13:24:30.518Z,52.2432
2023-05-22T13:25:31.194Z,54.8115
2023-05-22T13:26:31.408Z,54.3159
2023-05-22T13:27:34.314Z,49.9393
2023-05-22T13:34:41.230Z,46.5958
2023-05-22T13:37:45.673Z,52.7568
2023-05-22T13:40:48.976Z,47.9586
2023-05-22T13:51:57.949Z,54.1520
2023-05-22T13:52:58.078Z,53.9583
2023-05-22T13:53:58.403Z,60.0581
2023-05-22T13:54:59.928Z,51.6187
2023-05-22T13:56:01.436Z,44.8583
2023-05-22T14:03:09.553Z,46.9163
2023-05-22T14:05:10.201Z,57.5531
2023-05-22T14:06:13.811Z,52.7359
2023-05-22T14:07:13.861Z,51.6815
2023-05-22T14:08:15.708Z,47.7391
2023-05-22T14:09:17.248Z,52.1047
2023-05-22T14:11:20.449Z,59.8931
2023-05-22T14:12:21.166Z,50.8223
2023-05-22T14:13:22.635Z,48.7353
2023-05-22T14:15:26.742Z,55.4467
2023-05-22T14:16:28.109Z,59.9248
2023-05-22T14:17:29.402Z,53.5917
2023-05-22T14:18:30.802Z,54.2942
2023-05-22T14:19:33.395Z,54.4179
2023-05-22T14:20:33.553Z,45.4645
2023-05-22T14:21:35.681Z,47.6718
2023-05-22T14:22:55.895Z,51.1882
2023-05-22T14:26:08.789Z,46.4645
2023-05-22T14:27:11.095Z,47.0266
2023-05-22T14:28:10.976Z,54.5742
2023-05-22T14:29:10.970Z,57.0958
2023-05-22T14:30:12.989Z,52.5581
2023-05-22T14:31:14.331Z,51.6808
2023-05-22T14:32:16.389Z,49.8810
2023-05-22T14:33:17.950Z,51.3880
2023-05-22T14:34:19.684Z,49.9640
2023-05-22T14:35:21.357Z,55.2027
2023-05-22T14:36:21.647Z,48.7884
2023-05-22T14:37:23.155Z,49.3568
2023-05-22T14:38:23.689Z,55.5568
2023-05-22T14:39:25.573Z,50.7236
2023-05-22T14:40:27.143Z,45.9402
2023-05-22T14:41:27.401Z,43.7346
2023-05-22T14:42:28.901Z,45.3789
2023-05-22T14:43:30.207Z,47.0765
2023-05-22T14:44:31.720Z,43.3181
2023-05-22T14:45:33.248Z,50.0021
2023-05-22T14:46:35.091Z,42.8482
2023-05-22T14:47:36.321Z,47.4549
2023-05-22T14:48:37.247Z,47.0931
2023-05-22T14:49:37.973Z,46.7595
2023-05-22T14:50:39.274Z,45.4760
2023-05-22T14:51:40.730Z,47.7578
2023-05-22T14:52:41.152Z,46.5698
2023-05-22T14:53:42.744Z,43.4810
2023-05-22T14:54:44.192Z,49.2107
2023-05-22T14:55:45.536Z,44.0043
2023-05-22T14:56:47.363Z,47.3416
2023-05-22T14:57:48.730Z,46.3057
2023-05-22T14:58:49.695Z,48.4592
2023-05-22T14:59:50.959Z,42.3542
2023-05-22T15:00:52.280Z,43.2499
2023-05-22T15:01:53.927Z,43.7526
2023-05-22T15:02:55.676Z,49.8941
2023-05-22T15:03:57.013Z,44.9599
2023-05-22T15:04:58.785Z,49.4615
2023-05-22T15:05:59.186Z,49.5181
2023-05-22T15:08:02.261Z,44.5012
2023-05-22T15:09:03.872Z,43.4016
2023-05-22T15:10:04.491Z,44.9705
2023-05-22T15:11:05.736Z,46.7074
2023-05-22T15:12:08.467Z,45.1224
2023-05-22T15:14:09.462Z,47.3906
2023-05-22T15:17:13.292Z,42.7547
2023-05-22T15:24:21.361Z,52.3959
2023-05-22T15:25:22.655Z,48.0774
2023-05-22T15:26:23.467Z,51.2024
2023-05-22T15:27:24.820Z,50.7087
2023-05-22T15:30:27.717Z,50.3053
2023-05-22T15:31:29.657Z,52.2026
2023-05-22T15:32:31.328Z,59.5330
2023-05-22T15:33:33.493Z,64.3249
2023-05-22T15:34:35.274Z,54.4578
2023-05-22T15:35:36.625Z,54.5031
2023-05-22T15:36:36.784Z,53.6262
2023-05-22T15:37:37.275Z,53.0852
2023-05-22T15:38:38.824Z,65.5379
2023-05-22T15:39:40.251Z,65.3398
2023-05-22T15:40:42.358Z,62.4664
2023-05-22T15:42:02.413Z,65.3867
2023-05-22T16:11:57.016Z,58.6942
2023-05-22T16:12:58.497Z,55.7632
2023-05-22T16:14:00.636Z,56.1826
2023-05-22T16:20:09.969Z,55.0599
2023-05-22T16:21:11.594Z,54.6513
2023-05-22T16:22:12.674Z,54.3752
2023-05-22T16:23:14.726Z,55.0150
2023-05-22T16:24:16.638Z,54.3245
2023-05-22T16:25:18.560Z,46.4239
2023-05-22T16:26:18.632Z,50.4316
2023-05-22T16:27:20.441Z,52.6981
2023-05-22T16:28:22.268Z,58.7362
2023-05-22T16:29:24.297Z,52.9889
2023-05-22T16:30:26.447Z,54.1323
2023-05-22T16:31:26.607Z,50.2068
2023-05-22T16:32:28.631Z,44.2288
2023-05-22T16:33:28.566Z,52.2878
2023-05-22T16:34:30.703Z,46.9903
2023-05-22T16:35:32.555Z,53.7924
2023-05-22T16:36:34.102Z,43.6841
2023-05-22T16:37:35.587Z,42.1771
2023-05-22T16:38:37.344Z,42.7452
2023-05-22T16:39:39.110Z,46.8622
2023-05-22T16:40:40.941Z,48.2554
2023-05-22T17:02:05.143Z,52.9854
2023-05-22T17:03:07.398Z,39.4404
2023-05-22T17:04:09.127Z,40.9762
2023-05-22T17:05:09.702Z,40.3630
2023-05-22T17:06:11.852Z,40.7982
2023-05-22T17:07:12.165Z,41.0280
2023-05-22T17:08:14.061Z,44.7606
2023-05-22T17:09:16.144Z,54.3858
2023-05-22T17:10:16.577Z,44.2829
2023-05-22T17:14:22.353Z,44.7188
2023-05-22T17:15:22.869Z,44.4386
2023-05-22T17:16:24.860Z,48.8179
2023-05-22T17:17:26.543Z,48.8630
2023-05-22T17:18:28.390Z,41.5166
2023-05-22T17:19:29.229Z,48.1607
2023-05-22T17:20:31.082Z,52.5806
2023-05-22T17:21:33.406Z,55.4217
2023-05-22T17:22:34.266Z,59.3300
2023-05-22T17:23:34.987Z,57.9825
2023-05-22T17:24:35.680Z,46.7493
2023-05-22T17:25:38.001Z,42.0712
2023-05-22T17:26:37.855Z,51.0071
2023-05-22T17:27:37.987Z,54.4833
2023-05-22T17:28:38.056Z,50.1287
2023-05-22T17:29:39.967Z,46.6155
2023-05-22T17:30:40.119Z,54.4774
2023-05-22T17:43:57.514Z,60.7852
2023-05-22T17:44:57.714Z,58.9083
2023-05-22T17:45:58.832Z,60.8819
2023-05-22T17:46:59.552Z,59.3451
2023-05-22T17:47:59.817Z,60.4874
2023-05-22T17:49:01.883Z,59.8417
2023-05-22T17:50:04.057Z,61.4770
2023-05-22T17:51:04.408Z,63.1003
2023-05-22T17:52:05.249Z,66.6963
2023-05-22T17:53:06.962Z,67.6190
2023-05-22T17:54:08.722Z,65.9663
2023-05-22T17:55:10.390Z,67.6507
2023-05-22T17:56:12.629Z,62.4067
2023-05-22T17:57:14.193Z,60.8209
2023-05-22T17:58:14.589Z,66.9812
2023-05-22T17:59:16.453Z,64.5773
2023-05-22T18:00:18.224Z,61.1748
2023-05-22T18:01:19.659Z,62.5821
2023-05-22T18:02:21.119Z,68.8322
2023-05-22T18:03:21.979Z,72.3626
2023-05-22T18:04:21.809Z,70.9040
2023-05-22T18:05:22.951Z,71.7014
2023-05-22T18:06:24.774Z,71.9258
2023-05-22T18:07:25.987Z,69.1053
2023-05-22T18:08:27.405Z,61.9434
2023-05-22T18:09:28.738Z,69.2669
2023-05-22T18:10:29.954Z,68.6585
2023-05-22T18:11:30.961Z,67.5313
2023-05-22T18:12:32.762Z,66.3727
2023-05-22T18:13:33.928Z,69.5607
2023-05-22T18:14:35.462Z,71.7397
2023-05-22T18:15:36.464Z,70.0024
2023-05-22T18:16:36.963Z,67.0021
2023-05-22T18:17:38.299Z,64.6695
2023-05-22T18:18:39.470Z,69.4933
2023-05-22T18:19:40.081Z,71.2205
2023-05-22T18:20:41.934Z,74.5013
2023-05-22T18:24:46.508Z,75.3246
2023-05-22T18:25:57.537Z,73.2242
2023-05-22T18:30:20.813Z,74.9467
2023-05-22T18:31:23.771Z,74.8856
2023-05-22T18:32:23.338Z,78.3481
2023-05-22T18:33:24.775Z,76.9438
2023-05-22T18:34:26.066Z,76.6814
2023-05-22T18:35:27.413Z,73.3497
2023-05-22T18:36:27.788Z,74.6286
2023-05-22T18:42:33.821Z,76.1788
2023-05-22T18:43:35.504Z,76.9979
2023-05-22T18:44:36.912Z,77.4535
2023-05-22T18:45:38.623Z,81.1555
2023-05-22T18:46:40.922Z,81.1211
2023-05-22T18:55:51.214Z,78.6855
2023-05-22T18:56:51.189Z,75.2965
2023-05-22T18:58:51.997Z,73.4958
2023-05-22T18:59:53.179Z,78.4236
2023-05-22T19:00:54.745Z,79.0605
2023-05-22T19:01:57.178Z,79.6451
2023-05-22T19:23:19.722Z,87.6482
2023-05-22T19:26:22.831Z,87.1529
2023-05-22T19:27:23.827Z,87.6829
2023-05-22T19:28:24.882Z,87.7968
2023-05-22T19:29:26.506Z,86.3920
2023-05-22T19:30:27.588Z,86.2286
2023-05-22T19:31:28.870Z,86.6364
2023-05-22T19:32:29.644Z,87.0556
2023-05-22T19:33:30.765Z,86.7205
2023-05-22T19:34:31.900Z,86.6075
2023-05-22T19:35:33.238Z,87.1459
2023-05-22T19:36:34.870Z,87.6616
2023-05-22T19:37:39.714Z,87.9726
2023-05-22T19:40:08.711Z,89.7001
2023-05-22T19:47:19.020Z,89.5647
2023-05-22T19:48:18.881Z,89.8798
2023-05-22T20:01:35.433Z,90.2331
2023-05-22T20:03:38.079Z,90.1998
2023-05-22T20:10:45.854Z,91.0828
2023-05-22T20:11:46.926Z,90.9027
2023-05-22T20:18:54.592Z,91.1025
2023-05-22T20:20:56.127Z,91.4127
2023-05-22T20:21:58.133Z,90.9535
2023-05-22T20:22:59.620Z,91.2089
2023-05-22T20:24:02.171Z,91.3255
2023-05-22T20:25:04.032Z,91.8878
2023-05-22T20:34:13.078Z,91.8024
2023-05-22T20:35:15.221Z,91.7299
2023-05-22T20:38:17.382Z,91.8202
2023-05-22T20:39:19.041Z,91.9024
2023-05-22T20:40:20.038Z,91.6377
2023-05-22T20:41:21.306Z,91.0992
2023-05-22T20:42:23.286Z,91.0934
2023-05-22T20:43:24.768Z,91.2214
2023-05-22T20:56:41.827Z,93.8138
2023-05-22T20:57:43.723Z,93.9642
2023-05-22T20:58:45.680Z,93.9297
2023-05-22T20:59:46.811Z,93.8497
2023-05-22T21:00:48.326Z,93.8700
2023-05-22T21:01:49.458Z,94.0696
2023-05-22T21:02:50.736Z,94.1796
2023-05-22T21:03:52.024Z,94.0477
2023-05-22T21:04:53.483Z,94.0403
2023-05-22T21:05:54.590Z,93.9497
2023-05-22T21:06:55.355Z,93.5902
2023-05-22T21:07:56.509Z,93.3066
2023-05-22T21:08:57.855Z,93.3698
2023-05-22T21:09:59.600Z,93.3836
2023-05-22T21:11:00.271Z,93.3838
2023-05-22T21:12:01.500Z,93.3745
2023-05-22T21:13:01.889Z,93.4334
2023-05-22T21:14:03.010Z,93.4749
2023-05-22T21:15:03.536Z,93.5032
2023-05-22T21:16:04.653Z,93.3291
2023-05-22T21:17:08.426Z,93.1395
2023-05-22T21:25:16.288Z,92.0979
2023-05-22T21:26:17.758Z,91.9991
2023-05-22T21:27:19.614Z,92.1256
2023-05-22T21:28:20.548Z,92.2068
2023-05-22T21:30:23.160Z,92.9737
2023-05-22T21:31:24.199Z,93.1330
2023-05-22T21:32:25.207Z,93.3815
2023-05-22T21:33:26.419Z,93.6168
2023-05-22T21:34:27.375Z,93.8169
2023-05-22T21:38:32.836Z,93.9420
2023-05-22T21:39:35.096Z,94.0204
2023-05-22T21:40:34.887Z,94.0114
2023-05-22T21:42:46.683Z,93.7304
2023-05-22T21:47:11.622Z,94.1182
2023-05-22T21:48:13.307Z,94.1653
2023-05-22T21:57:25.590Z,95.4039
2023-05-22T21:58:27.467Z,95.4606
2023-05-22T21:59:28.642Z,95.5065
2023-05-22T22:00:29.716Z,95.5344
2023-05-22T22:01:31.563Z,95.5776
2023-05-22T22:02:33.075Z,95.6275
2023-05-22T22:04:35.618Z,95.7279
2023-05-22T22:05:37.732Z,95.7729
2023-05-22T22:06:39.349Z,95.8185